createdAt,value
2018-09-12T00:00:59.561Z,60.08
2018-09-12T00:01:59.319Z,60.4
2018-09-12T00:02:59.234Z,60.4
2018-09-12T00:03:59.232Z,60.08
2018-09-12T00:04:59.240Z,60.38
2018-09-12T00:05:59.278Z,59.98
2018-09-12T00:06:59.517Z,60.37
2018-09-12T00:07:59.064Z,60.09
2018-09-12T00:08:59.226Z,60.08
2018-09-12T00:09:59.323Z,60.45
2018-09-12T00:10:59.279Z,60.84
2018-09-12T00:11:59.286Z,60.81
2018-09-12T00:12:59.234Z,61.11
2018-09-12T00:13:59.282Z,61.11
2018-09-12T00:14:59.330Z,60.71
2018-09-12T00:15:59.293Z,61.25
2018-09-12T00:16:59.291Z,60.92
2018-09-12T00:17:59.400Z,60.9
2018-09-12T00:18:59.465Z,60.91
2018-09-12T00:19:59.252Z,60.87
2018-09-12T00:20:59.456Z,60.33
2018-09-12T00:21:59.336Z,60.57
2018-09-12T00:22:59.552Z,60.73
2018-09-12T00:23:59.871Z,61.27
2018-09-12T00:24:59.326Z,61.43
2018-09-12T00:25:59.591Z,61.29
2018-09-12T00:26:59.580Z,61.21
2018-09-12T00:27:59.598Z,61.69
2018-09-12T00:28:59.412Z,61.14
2018-09-12T00:29:59.501Z,61.84
2018-09-12T00:30:59.301Z,61.87
2018-09-12T00:31:59.621Z,61.52
2018-09-12T00:32:59.471Z,62.13
2018-09-12T00:33:59.335Z,61.85
2018-09-12T00:34:59.547Z,61.59
2018-09-12T00:35:59.297Z,61.8
2018-09-12T00:36:59.335Z,62.24
2018-09-12T00:37:59.572Z,61.35
2018-09-12T00:38:59.453Z,62.25
2018-09-12T00:39:59.294Z,61.44
2018-09-12T00:40:59.321Z,62.07
2018-09-12T00:41:59.274Z,62.06
2018-09-12T00:42:59.320Z,61.66
2018-09-12T00:43:59.352Z,61.95
2018-09-12T00:44:59.321Z,61.56
2018-09-12T00:45:59.247Z,61.61
2018-09-12T00:46:59.364Z,62.03
2018-09-12T00:47:59.629Z,62.17
2018-09-12T00:48:59.336Z,61.71
2018-09-12T00:49:59.304Z,62.38
2018-09-12T00:50:59.447Z,61.76
2018-09-12T00:51:59.410Z,62.25
2018-09-12T00:52:59.282Z,61.9
2018-09-12T00:53:59.457Z,62.19
2018-09-12T00:54:59.299Z,61.59
2018-09-12T00:55:59.282Z,62.52
2018-09-12T00:56:59.290Z,61.89
2018-09-12T00:57:59.279Z,61.61
2018-09-12T00:58:59.315Z,61.72
2018-09-12T00:59:59.385Z,62.36
2018-09-12T01:00:59.422Z,62.08
2018-09-12T01:01:59.308Z,61.9
2018-09-12T01:02:59.473Z,61.56
2018-09-12T01:03:59.370Z,61.73
2018-09-12T01:04:59.387Z,61.81
2018-09-12T01:05:59.468Z,61.49
2018-09-12T01:06:59.346Z,61.64
2018-09-12T01:07:59.422Z,61.65
2018-09-12T01:08:59.341Z,61.93
2018-09-12T01:09:59.306Z,62.17
2018-09-12T01:10:59.373Z,62.77
2018-09-12T01:11:59.605Z,62.22
2018-09-12T01:12:59.276Z,62.37
2018-09-12T01:13:59.340Z,62.95
2018-09-12T01:14:59.423Z,62.47
2018-09-12T01:15:59.335Z,62.66
2018-09-12T01:16:59.462Z,62.15
2018-09-12T01:17:59.341Z,62.27
2018-09-12T01:18:59.129Z,62.36
2018-09-12T01:19:59.473Z,62.17
2018-09-12T01:20:59.257Z,62.27
2018-09-12T01:21:59.366Z,62.85
2018-09-12T01:22:59.360Z,62.98
2018-09-12T01:23:59.369Z,62.84
2018-09-12T01:24:59.351Z,63.04
2018-09-12T01:25:59.293Z,63.07
2018-09-12T01:26:59.374Z,63.05
2018-09-12T01:27:59.304Z,62.58
2018-09-12T01:28:59.301Z,62.85
2018-09-12T01:29:59.327Z,63.19
2018-09-12T01:30:59.362Z,62.35
2018-09-12T01:31:59.308Z,63.23
2018-09-12T01:32:59.617Z,63.38
2018-09-12T01:33:59.285Z,63.24
2018-09-12T01:34:59.373Z,63.08
2018-09-12T01:35:59.557Z,63.02
2018-09-12T01:36:59.367Z,62.89
2018-09-12T01:37:59.472Z,63.22
2018-09-12T01:38:59.322Z,63.52
2018-09-12T01:39:59.294Z,63.5
2018-09-12T01:40:59.529Z,62.85
2018-09-12T01:41:59.309Z,63.62
2018-09-12T01:42:59.676Z,63.15
2018-09-12T01:43:59.274Z,63.61
2018-09-12T01:44:59.386Z,63.97
2018-09-12T01:45:59.362Z,63.95
2018-09-12T01:46:59.732Z,63.53
2018-09-12T01:47:59.417Z,63.79
2018-09-12T01:48:59.625Z,63.92
2018-09-12T01:49:59.539Z,63.69
2018-09-12T01:50:59.597Z,64.08
2018-09-12T01:51:59.414Z,63.91
2018-09-12T01:52:59.654Z,63.45
2018-09-12T01:53:59.464Z,63.75
2018-09-12T01:54:59.481Z,63.5
2018-09-12T01:55:59.365Z,63.01
2018-09-12T01:56:59.337Z,62.7
2018-09-12T01:57:59.585Z,63.03
2018-09-12T01:58:59.402Z,62.93
2018-09-12T01:59:59.335Z,62.94
2018-09-12T02:00:59.361Z,63.18
2018-09-12T02:01:59.391Z,62.73
2018-09-12T02:02:59.402Z,63.3
2018-09-12T02:03:59.258Z,63.09
2018-09-12T02:04:59.184Z,63.87
2018-09-12T02:05:59.355Z,64.23
2018-09-12T02:06:59.348Z,63.57
2018-09-12T02:07:59.400Z,64.09
2018-09-12T02:08:59.677Z,63.53
2018-09-12T02:09:59.344Z,63.88
2018-09-12T02:10:59.367Z,63.37
2018-09-12T02:11:59.352Z,63.96
2018-09-12T02:12:59.371Z,63.52
2018-09-12T02:13:59.352Z,63.49
2018-09-12T02:14:59.329Z,63.75
2018-09-12T02:15:59.366Z,63.29
2018-09-12T02:16:59.398Z,63.67
2018-09-12T02:17:59.324Z,63.44
2018-09-12T02:18:59.438Z,63.44
2018-09-12T02:19:59.491Z,63.44
2018-09-12T02:20:59.455Z,63.78
2018-09-12T02:21:59.650Z,63.26
2018-09-12T02:22:59.534Z,63.4
2018-09-12T02:23:59.559Z,63.35
2018-09-12T02:24:59.479Z,63.35
2018-09-12T02:25:59.452Z,63.78
2018-09-12T02:26:59.455Z,63.92
2018-09-12T02:27:59.403Z,63.46
2018-09-12T02:28:59.687Z,63.82
2018-09-12T02:29:59.387Z,64.64
2018-09-12T02:30:59.320Z,64.01
2018-09-12T02:31:59.534Z,64.36
2018-09-12T02:32:59.408Z,63.71
2018-09-12T02:33:59.698Z,63.45
2018-09-12T02:34:59.362Z,63.53
2018-09-12T02:35:59.356Z,63.94
2018-09-12T02:36:59.565Z,64.27
2018-09-12T02:37:59.463Z,64.44
2018-09-12T02:38:59.765Z,64.47
2018-09-12T02:39:59.252Z,64.1
2018-09-12T02:40:59.424Z,64.53
2018-09-12T02:41:59.324Z,64.51
2018-09-12T02:42:59.814Z,64.9
2018-09-12T02:43:59.406Z,64.84
2018-09-12T02:44:59.433Z,64.59
2018-09-12T02:45:59.760Z,63.99
2018-09-12T02:46:59.382Z,64.26
2018-09-12T02:47:59.520Z,64.03
2018-09-12T02:48:59.430Z,64.89
2018-09-12T02:49:59.346Z,64.34
2018-09-12T02:50:59.533Z,64.58
2018-09-12T02:51:59.538Z,64.64
2018-09-12T02:52:59.366Z,65.14
2018-09-12T02:53:59.375Z,64.76
2018-09-12T02:54:59.436Z,64.99
2018-09-12T02:55:59.388Z,64.72
2018-09-12T02:56:59.440Z,64.84
2018-09-12T02:57:59.501Z,65.46
2018-09-12T02:58:59.434Z,65.16
2018-09-12T02:59:59.533Z,64.57
2018-09-12T03:00:59.645Z,64.75
2018-09-12T03:01:59.415Z,64.84
2018-09-12T03:02:59.433Z,65.44
2018-09-12T03:03:59.837Z,65.56
2018-09-12T03:04:59.627Z,65.94
2018-09-12T03:05:59.548Z,65.46
2018-09-12T03:06:59.363Z,65.71
2018-09-12T03:08:00.057Z,65.21
2018-09-12T03:08:59.357Z,65.44
2018-09-12T03:09:59.380Z,65.43
2018-09-12T03:10:59.684Z,65.95
2018-09-12T03:11:59.438Z,65.39
2018-09-12T03:12:59.369Z,65.93
2018-09-12T03:13:59.353Z,66.01
2018-09-12T03:14:59.404Z,65.54
2018-09-12T03:15:59.477Z,65.44
2018-09-12T03:16:59.376Z,65.29
2018-09-12T03:17:59.379Z,65.24
2018-09-12T03:18:59.922Z,65.62
2018-09-12T03:19:59.556Z,65.86
2018-09-12T03:21:00.757Z,65.91
2018-09-12T03:21:59.640Z,65.57
2018-09-12T03:22:59.383Z,65.68
2018-09-12T03:23:59.482Z,65.71
2018-09-12T03:24:59.393Z,65.96
2018-09-12T03:25:59.393Z,65.61
2018-09-12T03:26:59.395Z,66.35
2018-09-12T03:27:59.529Z,66.32
2018-09-12T03:28:59.435Z,66.27
2018-09-12T03:29:59.815Z,66.38
2018-09-12T03:30:59.456Z,66.7
2018-09-12T03:31:59.535Z,66.23
2018-09-12T03:32:59.484Z,66.74
2018-09-12T03:33:59.495Z,66.16
2018-09-12T03:34:59.600Z,66.69
2018-09-12T03:35:59.768Z,67.01
2018-09-12T03:36:59.369Z,66.72
2018-09-12T03:37:59.469Z,66.57
2018-09-12T03:38:59.379Z,67.41
2018-09-12T03:39:59.634Z,67.11
2018-09-12T03:40:59.582Z,66.81
2018-09-12T03:41:59.368Z,66.62
2018-09-12T03:42:59.375Z,66.79
2018-09-12T03:43:59.315Z,67.23
2018-09-12T03:44:59.565Z,66.54
2018-09-12T03:45:59.471Z,66.4
2018-09-12T03:46:59.415Z,66.27
2018-09-12T03:48:00.234Z,66.11
2018-09-12T03:48:59.289Z,66.36
2018-09-12T03:49:59.392Z,65.89
2018-09-12T03:50:59.428Z,66.49
2018-09-12T03:51:59.876Z,66.69
2018-09-12T03:52:59.691Z,67.12
2018-09-12T03:53:59.487Z,67.2
2018-09-12T03:54:59.507Z,66.96
2018-09-12T03:55:59.393Z,66.71
2018-09-12T03:56:59.405Z,66.91
2018-09-12T03:57:59.403Z,67.2
2018-09-12T03:58:59.630Z,66.81
2018-09-12T03:59:59.451Z,66.98
2018-09-12T04:00:59.404Z,67.16
2018-09-12T04:01:59.468Z,66.87
2018-09-12T04:02:59.445Z,66.45
2018-09-12T04:03:59.781Z,66.7
2018-09-12T04:04:59.721Z,67.65
2018-09-12T04:05:59.460Z,67.14
2018-09-12T04:06:59.450Z,67.33
2018-09-12T04:07:59.551Z,66.85
2018-09-12T04:08:59.441Z,67.73
2018-09-12T04:09:59.467Z,67.56
2018-09-12T04:10:59.391Z,67.13
2018-09-12T04:11:59.402Z,67.4
2018-09-12T04:12:59.403Z,67.18
2018-09-12T04:13:59.500Z,67.3
2018-09-12T04:14:59.433Z,67.17
2018-09-12T04:15:59.416Z,67.65
2018-09-12T04:17:01.748Z,66.97
2018-09-12T04:17:59.427Z,67.03
2018-09-12T04:18:59.437Z,67.63
2018-09-12T04:19:59.491Z,67.57
2018-09-12T04:20:59.403Z,67.9
2018-09-12T04:21:59.474Z,67.86
2018-09-12T04:22:59.458Z,67.75
2018-09-12T04:23:59.462Z,67.91
2018-09-12T04:24:59.689Z,67.61
2018-09-12T04:25:59.514Z,67.31
2018-09-12T04:26:59.646Z,67.53
2018-09-12T04:27:59.489Z,67.74
2018-09-12T04:28:59.628Z,67.24
2018-09-12T04:29:59.508Z,67.78
2018-09-12T04:30:59.717Z,67.89
2018-09-12T04:31:59.483Z,68.09
2018-09-12T04:32:59.791Z,68
2018-09-12T04:33:59.473Z,68.13
2018-09-12T04:34:59.763Z,68.15
2018-09-12T04:35:59.504Z,68.18
2018-09-12T04:36:59.693Z,67.82
2018-09-12T04:37:59.417Z,68.4
2018-09-12T04:38:59.787Z,67.99
2018-09-12T04:39:59.794Z,67.9
2018-09-12T04:40:59.515Z,67.66
2018-09-12T04:42:00.319Z,68.7
2018-09-12T04:42:59.468Z,68.05
2018-09-12T04:43:59.656Z,68.54
2018-09-12T04:44:59.506Z,67.81
2018-09-12T04:45:59.791Z,68.2
2018-09-12T04:46:59.633Z,68.31
2018-09-12T04:47:59.492Z,68.69
2018-09-12T04:48:59.500Z,68.24
2018-09-12T04:49:59.517Z,68.33
2018-09-12T04:50:59.574Z,68.21
2018-09-12T04:51:59.584Z,67.82
2018-09-12T04:52:59.448Z,68.22
2018-09-12T04:53:59.787Z,68.88
2018-09-12T04:54:59.833Z,68.26
2018-09-12T04:55:59.342Z,68.46
2018-09-12T04:56:59.444Z,68.45
2018-09-12T04:58:00.002Z,68.49
2018-09-12T04:58:59.600Z,68.31
2018-09-12T04:59:59.472Z,68.1
2018-09-12T05:00:59.517Z,68.95
2018-09-12T05:02:00.048Z,68.86
2018-09-12T05:02:59.515Z,68.42
2018-09-12T05:03:59.489Z,68.35
2018-09-12T05:04:59.539Z,67.95
2018-09-12T05:05:59.547Z,68.08
2018-09-12T05:06:59.505Z,68.33
2018-09-12T05:07:59.429Z,68.84
2018-09-12T05:08:59.587Z,68.57
2018-09-12T05:09:59.526Z,68.63
2018-09-12T05:10:59.618Z,68.58
2018-09-12T05:11:59.502Z,68.83
2018-09-12T05:12:59.554Z,68.99
2018-09-12T05:13:59.467Z,69.06
2018-09-12T05:14:59.507Z,69.04
2018-09-12T05:15:59.880Z,69.43
2018-09-12T05:16:59.587Z,69.47
2018-09-12T05:17:59.453Z,69.14
2018-09-12T05:18:59.535Z,69.06
2018-09-12T05:19:59.599Z,68.42
2018-09-12T05:20:59.450Z,68.68
2018-09-12T05:21:59.477Z,68.56
2018-09-12T05:22:59.476Z,69.38
2018-09-12T05:23:59.483Z,69.31
2018-09-12T05:24:59.529Z,68.57
2018-09-12T05:25:59.773Z,69.62
2018-09-12T05:26:59.643Z,69
2018-09-12T05:27:59.697Z,68.73
2018-09-12T05:28:59.526Z,68.31
2018-09-12T05:29:59.859Z,68.57
2018-09-12T05:30:59.504Z,68.3
2018-09-12T05:31:59.698Z,68.87
2018-09-12T05:32:59.254Z,68.83
2018-09-12T05:33:59.535Z,68.93
2018-09-12T05:34:59.667Z,68.76
2018-09-12T05:35:59.685Z,68.52
2018-09-12T05:36:59.562Z,68.58
2018-09-12T05:37:59.489Z,69.15
2018-09-12T05:38:59.693Z,68.69
2018-09-12T05:39:59.437Z,69.55
2018-09-12T05:40:59.509Z,68.89
2018-09-12T05:41:59.560Z,68.75
2018-09-12T05:42:59.520Z,69.41
2018-09-12T05:43:59.486Z,69.09
2018-09-12T05:44:59.531Z,69.83
2018-09-12T05:45:59.747Z,69.18
2018-09-12T05:46:59.543Z,69.15
2018-09-12T05:47:59.491Z,69.44
2018-09-12T05:49:06.493Z,68.92
2018-09-12T05:50:00.620Z,68.69
2018-09-12T05:51:01.061Z,69.36
2018-09-12T05:51:59.588Z,68.98
2018-09-12T05:52:59.741Z,68.96
2018-09-12T05:53:59.524Z,69.51
2018-09-12T05:54:59.506Z,69.51
2018-09-12T05:55:59.784Z,69.42
2018-09-12T05:56:59.500Z,69.53
2018-09-12T05:57:59.780Z,69.42
2018-09-12T05:58:59.443Z,69.48
2018-09-12T05:59:59.469Z,69.28
2018-09-12T06:00:59.475Z,69.61
2018-09-12T06:01:59.732Z,69.52
2018-09-12T06:02:59.555Z,69.5
2018-09-12T06:03:59.535Z,69.59
2018-09-12T06:04:59.796Z,68.88
2018-09-12T06:05:59.655Z,68.8
2018-09-12T06:07:00.618Z,69.41
2018-09-12T06:07:59.591Z,68.82
2018-09-12T06:08:59.766Z,69.24
2018-09-12T06:09:59.656Z,69.3
2018-09-12T06:10:59.513Z,69.16
2018-09-12T06:11:59.697Z,68.96
2018-09-12T06:12:59.716Z,68.89
2018-09-12T06:13:59.710Z,68.65
2018-09-12T06:14:59.487Z,68.93
2018-09-12T06:15:59.593Z,68.96
2018-09-12T06:16:59.485Z,69.07
2018-09-12T06:17:59.536Z,68.86
2018-09-12T06:18:59.498Z,69
2018-09-12T06:19:59.578Z,69.08
2018-09-12T06:20:59.500Z,68.82
2018-09-12T06:21:59.779Z,69.43
2018-09-12T06:22:59.595Z,69.16
2018-09-12T06:23:59.680Z,69.06
2018-09-12T06:24:59.302Z,69.04
2018-09-12T06:25:59.785Z,68.98
2018-09-12T06:26:59.624Z,68.65
2018-09-12T06:27:59.673Z,68.32
2018-09-12T06:28:59.565Z,68.76
2018-09-12T06:29:59.564Z,68.85
2018-09-12T06:30:59.568Z,68.74
2018-09-12T06:31:59.493Z,68.71
2018-09-12T06:32:59.470Z,68.71
2018-09-12T06:33:59.640Z,68.66
2018-09-12T06:34:59.595Z,68.62
2018-09-12T06:35:59.517Z,68.92
2018-09-12T06:36:59.597Z,68.84
2018-09-12T06:37:59.513Z,68.42
2018-09-12T06:38:59.430Z,68.59
2018-09-12T06:39:59.620Z,68.69
2018-09-12T06:40:59.525Z,68.23
2018-09-12T06:41:59.642Z,68.34
2018-09-12T06:42:59.815Z,68.45
2018-09-12T06:43:59.558Z,68.01
2018-09-12T06:44:59.472Z,68.15
2018-09-12T06:45:59.544Z,68.43
2018-09-12T06:46:59.680Z,67.79
2018-09-12T06:48:00.498Z,67.78
2018-09-12T06:48:59.704Z,68.03
2018-09-12T06:49:59.572Z,68.04
2018-09-12T06:50:59.500Z,67.6
2018-09-12T06:51:59.611Z,67.92
2018-09-12T06:52:59.565Z,67.97
2018-09-12T06:53:59.545Z,67.78
2018-09-12T06:54:59.576Z,67.56
2018-09-12T06:55:59.518Z,67.45
2018-09-12T06:56:59.546Z,67.59
2018-09-12T06:57:59.505Z,67.55
2018-09-12T06:58:59.638Z,67.35
2018-09-12T06:59:59.623Z,66.93
2018-09-12T07:00:59.961Z,67.49
2018-09-12T07:01:59.611Z,67.5
2018-09-12T07:02:59.583Z,67.18
2018-09-12T07:03:59.629Z,66.99
2018-09-12T07:04:59.588Z,66.85
2018-09-12T07:05:59.629Z,67.38
2018-09-12T07:06:59.495Z,66.76
2018-09-12T07:07:59.766Z,66.65
2018-09-12T07:08:59.659Z,66.16
2018-09-12T07:09:59.608Z,66.41
2018-09-12T07:10:59.623Z,66.68
2018-09-12T07:11:59.762Z,66.61
2018-09-12T07:12:59.655Z,66.18
2018-09-12T07:13:59.684Z,65.91
2018-09-12T07:15:00.427Z,65.9
2018-09-12T07:16:00.027Z,65.93
2018-09-12T07:16:59.357Z,65.83
2018-09-12T07:17:59.681Z,65.4
2018-09-12T07:18:59.664Z,65.43
2018-09-12T07:19:59.951Z,65.34
2018-09-12T07:20:59.511Z,65.17
2018-09-12T07:21:59.772Z,65.28
2018-09-12T07:22:59.633Z,65.3
2018-09-12T07:23:59.807Z,65.11
2018-09-12T07:24:59.517Z,64.99
2018-09-12T07:25:59.546Z,64.54
2018-09-12T07:26:59.672Z,64.73
2018-09-12T07:27:59.603Z,64.77
2018-09-12T07:28:59.584Z,64.73
2018-09-12T07:29:59.562Z,64.44
2018-09-12T07:30:59.543Z,64.41
2018-09-12T07:31:59.682Z,64.34
2018-09-12T07:32:59.674Z,64.1
2018-09-12T07:33:59.679Z,64.21
2018-09-12T07:34:59.710Z,63.76
2018-09-12T07:35:59.555Z,63.76
2018-09-12T07:36:59.685Z,64.39
2018-09-12T07:37:59.616Z,64.03
2018-09-12T07:38:59.610Z,63.92
2018-09-12T07:39:59.655Z,64.12
2018-09-12T07:40:59.847Z,64.02
2018-09-12T07:41:59.630Z,63.97
2018-09-12T07:43:00.020Z,64.16
2018-09-12T07:43:59.564Z,63.58
2018-09-12T07:44:59.636Z,63.12
2018-09-12T07:45:59.587Z,63.86
2018-09-12T07:47:00.050Z,63.73
2018-09-12T07:48:00.153Z,63.5
2018-09-12T07:48:59.869Z,63.32
2018-09-12T07:49:59.730Z,63
2018-09-12T07:50:59.622Z,63.4
2018-09-12T07:51:59.708Z,63.25
2018-09-12T07:52:59.517Z,63.67
2018-09-12T07:53:59.551Z,62.53
2018-09-12T07:54:59.702Z,63.33
2018-09-12T07:55:59.891Z,63.69
2018-09-12T07:57:00.215Z,63.26
2018-09-12T07:57:59.710Z,63.17
2018-09-12T07:58:59.734Z,62.99
2018-09-12T07:59:59.963Z,62.51
2018-09-12T08:00:59.786Z,62.88
2018-09-12T08:01:59.629Z,62.38
2018-09-12T08:02:59.810Z,62.25
2018-09-12T08:03:59.609Z,62.29
2018-09-12T08:05:00.105Z,61.99
2018-09-12T08:05:59.771Z,62.01
2018-09-12T08:06:59.666Z,61.68
2018-09-12T08:07:59.648Z,61.86
2018-09-12T08:08:59.790Z,61.31
2018-09-12T08:09:59.604Z,61.24
2018-09-12T08:10:59.589Z,61.36
2018-09-12T08:11:59.665Z,61.14
2018-09-12T08:12:59.608Z,61.13
2018-09-12T08:13:59.544Z,61.52
2018-09-12T08:14:59.638Z,61.02
2018-09-12T08:15:59.718Z,61.28
2018-09-12T08:16:59.999Z,60.32
2018-09-12T08:17:59.719Z,60.71
2018-09-12T08:18:59.955Z,61.1
2018-09-12T08:19:59.916Z,60.84
2018-09-12T08:20:59.546Z,60.53
2018-09-12T08:21:59.597Z,59.93
2018-09-12T08:23:00.091Z,60.4
2018-09-12T08:23:59.744Z,60.54
2018-09-12T08:24:59.612Z,60.49
2018-09-12T08:25:59.615Z,59.74
2018-09-12T08:26:59.661Z,60.01
2018-09-12T08:27:59.655Z,60.33
2018-09-12T08:28:59.676Z,60.6
2018-09-12T08:29:59.757Z,59.3
2018-09-12T08:30:59.636Z,58.84
2018-09-12T08:31:59.735Z,59.35
2018-09-12T08:32:59.594Z,59.61
2018-09-12T08:33:59.622Z,60.34
2018-09-12T08:34:59.697Z,59.55
2018-09-12T08:35:59.613Z,59.13
2018-09-12T08:36:59.915Z,59.13
2018-09-12T08:37:59.632Z,59.36
2018-09-12T08:38:59.612Z,59.18
2018-09-12T08:40:00.244Z,59.48
2018-09-12T08:41:00.319Z,59.42
2018-09-12T08:41:59.707Z,59.39
2018-09-12T08:42:59.684Z,58.79
2018-09-12T08:43:59.648Z,58.77
2018-09-12T08:44:59.830Z,59.08
2018-09-12T08:45:59.877Z,58.84
2018-09-12T08:46:59.958Z,58.42
2018-09-12T08:47:59.665Z,58.72
2018-09-12T08:48:59.719Z,59.14
2018-09-12T08:49:59.594Z,56.35
2018-09-12T08:50:59.713Z,55.9
2018-09-12T08:51:59.722Z,56.07
2018-09-12T08:53:00.114Z,56.07
2018-09-12T08:54:00.125Z,56.19
2018-09-12T08:54:59.798Z,56.18
2018-09-12T08:55:59.844Z,55.65
2018-09-12T08:56:59.787Z,56.11
2018-09-12T08:57:59.607Z,55.41
2018-09-12T08:58:59.592Z,55.14
2018-09-12T08:59:59.721Z,55.25
2018-09-12T09:00:59.662Z,55.33
2018-09-12T09:01:59.851Z,55.54
2018-09-12T09:02:59.691Z,55.02
2018-09-12T09:03:59.759Z,54.21
2018-09-12T09:04:59.654Z,54.23
2018-09-12T09:05:59.620Z,54.99
2018-09-12T09:06:59.657Z,54.07
2018-09-12T09:07:59.794Z,53.92
2018-09-12T09:08:59.746Z,54.6
2018-09-12T09:09:59.646Z,54.48
2018-09-12T09:10:59.452Z,54.77
2018-09-12T09:11:59.736Z,54.15
2018-09-12T09:12:59.707Z,53.97
2018-09-12T09:13:59.620Z,53.77
2018-09-12T09:14:59.673Z,53.72
2018-09-12T09:15:59.670Z,53.88
2018-09-12T09:16:59.840Z,53.75
2018-09-12T09:17:59.899Z,54.83
2018-09-12T09:18:59.677Z,54.61
2018-09-12T09:19:59.702Z,53.97
2018-09-12T09:20:59.868Z,53.46
2018-09-12T09:21:59.878Z,53.79
2018-09-12T09:22:59.706Z,53.8
2018-09-12T09:23:59.629Z,53.47
2018-09-12T09:24:59.657Z,53.64
2018-09-12T09:25:59.729Z,53.75
2018-09-12T09:26:59.598Z,52.91
2018-09-12T09:27:59.784Z,52.5
2018-09-12T09:29:00.130Z,52.58
2018-09-12T09:29:59.880Z,52.42
2018-09-12T09:30:59.728Z,52.22
2018-09-12T09:31:59.665Z,52.73
2018-09-12T09:32:59.671Z,53.28
2018-09-12T09:33:59.667Z,52.21
2018-09-12T09:35:00.631Z,51.8
2018-09-12T09:35:59.538Z,51.43
2018-09-12T09:36:59.742Z,51.07
2018-09-12T09:37:59.893Z,51.49
2018-09-12T09:38:59.747Z,50.59
2018-09-12T09:39:59.986Z,51.23
2018-09-12T09:40:59.707Z,50.63
2018-09-12T09:41:59.736Z,50.57
2018-09-12T09:42:59.649Z,50.12
2018-09-12T09:43:59.845Z,50.49
2018-09-12T09:44:59.739Z,50.3
2018-09-12T09:45:59.701Z,49.55
2018-09-12T09:46:59.682Z,49.75
2018-09-12T09:48:00.115Z,50.23
2018-09-12T09:48:59.681Z,50.48
2018-09-12T09:49:59.711Z,50.16
2018-09-12T09:50:59.719Z,50.32
2018-09-12T09:51:59.687Z,49.38
2018-09-12T09:52:59.590Z,49.3
2018-09-12T09:53:59.706Z,49.77
2018-09-12T09:54:59.869Z,49.74
2018-09-12T09:55:59.851Z,47.68
2018-09-12T09:56:59.654Z,48.77
2018-09-12T09:57:59.740Z,48.51
2018-09-12T09:58:59.735Z,48.19
2018-09-12T09:59:59.935Z,47.98
2018-09-12T10:00:59.747Z,48.3
2018-09-12T10:01:59.777Z,48.15
2018-09-12T10:02:59.752Z,47.38
2018-09-12T10:03:59.751Z,48.48
2018-09-12T10:04:59.731Z,47.46
2018-09-12T10:06:00.165Z,47.99
2018-09-12T10:06:59.739Z,47.91
2018-09-12T10:07:59.905Z,47.91
2018-09-12T10:08:59.789Z,47.55
2018-09-12T10:09:59.685Z,47.73
2018-09-12T10:10:59.830Z,47.48
2018-09-12T10:12:00.153Z,46.82
2018-09-12T10:12:59.695Z,47.58
2018-09-12T10:14:00.233Z,47.27
2018-09-12T10:14:59.726Z,46.12
2018-09-12T10:15:59.534Z,46.8
2018-09-12T10:17:00.153Z,46.24
2018-09-12T10:17:59.746Z,44.55
2018-09-12T10:18:59.716Z,45.3
2018-09-12T10:20:00.047Z,44.34
2018-09-12T10:20:59.697Z,44.61
2018-09-12T10:21:59.780Z,44.06
2018-09-12T10:22:59.865Z,44.65
2018-09-12T10:23:59.624Z,42.96
2018-09-12T10:25:00.100Z,42.86
2018-09-12T10:25:59.649Z,43.18
2018-09-12T10:26:59.743Z,43.52
2018-09-12T10:27:59.893Z,43.36
2018-09-12T10:28:59.768Z,43.04
2018-09-12T10:29:59.823Z,42.73
2018-09-12T10:30:59.667Z,43.28
2018-09-12T10:31:59.689Z,43.4
2018-09-12T10:32:59.736Z,43.02
2018-09-12T10:33:59.672Z,43.05
2018-09-12T10:34:59.789Z,43.1
2018-09-12T10:35:59.686Z,43.16
2018-09-12T10:36:59.758Z,43.09
2018-09-12T10:38:00.127Z,42.93
2018-09-12T10:39:00.137Z,42.56
2018-09-12T10:40:00.322Z,42.7
2018-09-12T10:40:59.884Z,42.91
2018-09-12T10:41:59.800Z,41.61
2018-09-12T10:42:59.738Z,42.19
2018-09-12T10:43:59.803Z,41.56
2018-09-12T10:44:59.784Z,42.36
2018-09-12T10:45:59.715Z,42.72
2018-09-12T10:46:59.672Z,42.93
2018-09-12T10:47:59.655Z,42.99
2018-09-12T10:48:59.685Z,42.46
2018-09-12T10:49:59.729Z,42.43
2018-09-12T10:50:59.719Z,42.56
2018-09-12T10:51:59.668Z,42.82
2018-09-12T10:52:59.745Z,42.27
2018-09-12T10:53:59.671Z,41.26
2018-09-12T10:54:59.813Z,41.76
2018-09-12T10:55:59.844Z,41.02
2018-09-12T10:56:59.748Z,40.6
2018-09-12T10:57:59.706Z,41.12
2018-09-12T10:59:00.011Z,41.01
2018-09-12T10:59:59.705Z,40.72
2018-09-12T11:00:59.624Z,40.79
2018-09-12T11:01:59.857Z,41.21
2018-09-12T11:02:59.750Z,41.59
2018-09-12T11:03:59.893Z,40.89
2018-09-12T11:04:59.869Z,40.47
2018-09-12T11:05:59.892Z,41.48
2018-09-12T11:06:59.902Z,40.18
2018-09-12T11:07:59.792Z,39.85
2018-09-12T11:08:59.828Z,39.89
2018-09-12T11:09:59.938Z,40.31
2018-09-12T11:10:59.707Z,40.15
2018-09-12T11:11:59.814Z,39.36
2018-09-12T11:12:59.820Z,38.79
2018-09-12T11:13:59.826Z,38.98
2018-09-12T11:14:59.823Z,39.83
2018-09-12T11:15:59.829Z,39.28
2018-09-12T11:16:59.838Z,39.61
2018-09-12T11:17:59.757Z,39.76
2018-09-12T11:19:00.100Z,39.93
2018-09-12T11:19:59.968Z,40.01
2018-09-12T11:20:59.874Z,39.35
2018-09-12T11:22:00.303Z,40.01
2018-09-12T11:23:00.502Z,39.57
2018-09-12T11:24:00.051Z,39.22
2018-09-12T11:24:59.721Z,39.93
2018-09-12T11:26:00.839Z,39.54
2018-09-12T11:26:59.915Z,39.4
2018-09-12T11:28:00.037Z,40.2
2018-09-12T11:28:59.816Z,39.99
2018-09-12T11:29:59.999Z,39.72
2018-09-12T11:30:59.740Z,38.95
2018-09-12T11:31:59.851Z,39.18
2018-09-12T11:32:59.688Z,38.98
2018-09-12T11:33:59.764Z,39.79
2018-09-12T11:34:59.760Z,39.77
2018-09-12T11:35:59.951Z,39.33
2018-09-12T11:36:59.985Z,38.97
2018-09-12T11:37:59.882Z,38.68
2018-09-12T11:38:59.825Z,38.37
2018-09-12T11:39:59.991Z,38.18
2018-09-12T11:40:59.639Z,38.54
2018-09-12T11:42:00.132Z,38.31
2018-09-12T11:42:59.719Z,38.61
2018-09-12T11:44:00.158Z,38.58
2018-09-12T11:45:00.213Z,37.93
2018-09-12T11:45:59.833Z,37.63
2018-09-12T11:46:59.853Z,37.53
2018-09-12T11:47:59.786Z,37.66
2018-09-12T11:49:00.011Z,38.24
2018-09-12T11:50:00.298Z,37.84
2018-09-12T11:51:00.116Z,37.7
2018-09-12T11:51:59.963Z,38.03
2018-09-12T11:52:59.868Z,37.5
2018-09-12T11:53:59.896Z,38.03
2018-09-12T11:54:59.809Z,37.73
2018-09-12T11:55:59.764Z,37.93
2018-09-12T11:56:59.849Z,38.55
2018-09-12T11:57:59.919Z,38.47
2018-09-12T11:58:59.749Z,37.92
2018-09-12T12:00:00.051Z,38.7
2018-09-12T12:00:59.919Z,38.46
2018-09-12T12:01:59.966Z,37.9
2018-09-12T12:02:59.759Z,37.87
2018-09-12T12:03:59.802Z,37.56
2018-09-12T12:05:00.384Z,37.02
2018-09-12T12:05:59.897Z,37.12
2018-09-12T12:06:59.789Z,37.53
2018-09-12T12:07:59.892Z,37.69
2018-09-12T12:08:59.757Z,37.27
2018-09-12T12:09:59.912Z,36.74
2018-09-12T12:11:00.022Z,36.86
2018-09-12T12:11:59.807Z,36.62
2018-09-12T12:12:59.975Z,36.93
2018-09-12T12:13:59.907Z,37.56
2018-09-12T12:14:59.904Z,37.06
2018-09-12T12:15:59.845Z,37.09
2018-09-12T12:16:59.644Z,36.57
2018-09-12T12:17:59.787Z,37.04
2018-09-12T12:18:59.805Z,36.95
2018-09-12T12:19:59.811Z,37.7
2018-09-12T12:20:59.730Z,36.57
2018-09-12T12:21:59.985Z,36.78
2018-09-12T12:23:00.189Z,36.95
2018-09-12T12:24:00.838Z,37.08
2018-09-12T12:24:59.821Z,36.68
2018-09-12T12:25:59.803Z,36.29
2018-09-12T12:26:59.807Z,36.32
2018-09-12T12:28:00.018Z,36.52
2018-09-12T12:28:59.858Z,36.55
2018-09-12T12:29:59.920Z,37.22
2018-09-12T12:31:00.162Z,36.81
2018-09-12T12:31:59.766Z,36.68
2018-09-12T12:32:59.990Z,37.25
2018-09-12T12:33:59.801Z,37.41
2018-09-12T12:34:59.880Z,36.96
2018-09-12T12:35:59.769Z,37.09
2018-09-12T12:36:59.879Z,37.66
2018-09-12T12:38:00.021Z,36.53
2018-09-12T12:38:59.909Z,36.96
2018-09-12T12:39:59.911Z,37.68
2018-09-12T12:41:00.048Z,36.85
2018-09-12T12:42:00.222Z,36.43
2018-09-12T12:42:59.790Z,37.05
2018-09-12T12:43:59.773Z,36.05
2018-09-12T12:45:00.087Z,36.3
2018-09-12T12:46:00.257Z,35.93
2018-09-12T12:46:59.781Z,35.67
2018-09-12T12:47:59.748Z,35.61
2018-09-12T12:48:59.788Z,35.95
2018-09-12T12:50:00.283Z,35.45
2018-09-12T12:50:59.801Z,35.55
2018-09-12T12:51:59.921Z,35.48
2018-09-12T12:52:59.757Z,35.78
2018-09-12T12:54:00.211Z,36.08
2018-09-12T12:54:59.883Z,36.09
2018-09-12T12:55:59.857Z,36.19